createdAt,value
2019-05-11T00:00:39.352Z,6.26
2019-05-11T00:05:48.504Z,8.52
2019-05-11T00:10:57.580Z,7.78
2019-05-11T00:16:06.776Z,8.43
2019-05-11T00:21:15.870Z,7.33
2019-05-11T00:26:25.239Z,9.32
2019-05-11T00:31:34.308Z,8.45
2019-05-11T00:36:43.467Z,8.30
2019-05-11T00:41:52.531Z,8.68
2019-05-11T00:47:01.710Z,8.08
2019-05-11T00:52:10.939Z,7.24
2019-05-11T00:57:20.091Z,6.92
2019-05-11T01:02:29.175Z,6.63
2019-05-11T01:07:38.296Z,10.68
2019-05-11T01:12:47.370Z,10.50
2019-05-11T01:17:56.532Z,9.53
2019-05-11T01:23:05.638Z,9.98
2019-05-11T01:28:14.853Z,13.32
2019-05-11T01:33:23.935Z,10.64
2019-05-11T01:38:33.075Z,9.71
2019-05-11T01:43:42.223Z,10.42
2019-05-11T01:48:51.484Z,12.08
2019-05-11T01:54:00.612Z,11.15
2019-05-11T01:59:09.718Z,8.91
2019-05-11T02:04:18.798Z,11.41
2019-05-11T02:09:28.004Z,11.65
2019-05-11T02:14:37.072Z,10.71
2019-05-11T02:19:46.258Z,12.69
2019-05-11T02:24:55.335Z,12.75
2019-05-11T02:30:04.479Z,12.33
2019-05-11T02:35:13.538Z,11.74
2019-05-11T02:40:22.687Z,11.82
2019-05-11T02:45:31.757Z,12.84
2019-05-11T02:50:41.083Z,9.90
2019-05-11T02:55:50.242Z,11.95
2019-05-11T03:00:59.559Z,9.19
2019-05-11T03:06:08.623Z,12.86
2019-05-11T03:11:17.911Z,10.06
2019-05-11T03:16:27.002Z,11.36
2019-05-11T03:21:36.241Z,9.09
2019-05-11T03:26:45.310Z,9.22
2019-05-11T03:31:54.598Z,10.48
2019-05-11T03:37:03.710Z,10.84
2019-05-11T03:42:15.183Z,9.38
2019-05-11T03:47:21.503Z,9.23
2019-05-11T03:52:30.935Z,9.17
2019-05-11T03:57:39.994Z,10.18
2019-05-11T04:02:49.126Z,11.50
2019-05-11T04:07:58.288Z,7.78
2019-05-11T04:13:07.471Z,9.55
2019-05-11T04:18:16.504Z,8.53
2019-05-11T04:23:25.771Z,10.66
2019-05-11T04:28:34.846Z,9.08
2019-05-11T04:33:44.209Z,8.83
2019-05-11T04:38:53.286Z,7.46
2019-05-11T04:44:02.419Z,8.52
2019-05-11T04:49:11.518Z,8.76
2019-05-11T04:54:20.768Z,9.08
2019-05-11T04:59:29.851Z,9.01
2019-05-11T05:04:39.093Z,10.45
2019-05-11T05:09:48.140Z,8.66
2019-05-11T05:14:57.282Z,9.10
2019-05-11T05:20:06.370Z,8.31
2019-05-11T05:25:15.677Z,10.68
2019-05-11T05:30:24.762Z,9.40
2019-05-11T05:35:34.023Z,8.28
2019-05-11T05:40:43.078Z,12.83
2019-05-11T05:45:52.214Z,10.40
2019-05-11T05:51:01.298Z,8.79
2019-05-11T05:56:10.414Z,10.03
2019-05-11T06:01:19.514Z,11.47
2019-05-11T06:06:28.649Z,9.30
2019-05-11T06:11:37.738Z,11.91
2019-05-11T06:16:47.037Z,10.93
2019-05-11T06:21:56.097Z,10.16
2019-05-11T06:27:05.408Z,11.16
2019-05-11T06:32:14.480Z,8.30
2019-05-11T06:37:23.628Z,11.99
2019-05-11T06:42:32.708Z,8.64
2019-05-11T06:47:41.868Z,8.92
2019-05-11T06:52:51.128Z,7.59
2019-05-11T06:58:00.269Z,11.49
2019-05-11T07:03:09.395Z,9.61
2019-05-11T07:08:18.548Z,10.89
2019-05-11T07:13:27.657Z,11.21
2019-05-11T07:18:36.914Z,8.43
2019-05-11T07:23:46.007Z,9.42
2019-05-11T07:28:55.295Z,8.94
2019-05-11T07:34:04.439Z,8.76
2019-05-11T07:39:13.634Z,8.31
2019-05-11T07:44:35.034Z,7.36
2019-05-11T07:49:31.503Z,10.12
2019-05-11T07:54:40.591Z,9.93
2019-05-11T07:59:49.889Z,8.50
2019-05-11T08:04:59.042Z,8.06
2019-05-11T08:10:08.409Z,10.62
2019-05-11T08:15:18.328Z,9.73
2019-05-11T08:20:28.102Z,8.43
2019-05-11T08:25:34.662Z,9.37
2019-05-11T08:30:43.854Z,6.33
2019-05-11T08:35:52.917Z,12.88
2019-05-11T08:41:02.171Z,7.90
2019-05-11T08:46:11.258Z,7.40
2019-05-11T08:51:20.530Z,10.85
2019-05-11T08:56:29.665Z,11.59
2019-05-11T09:01:39.448Z,9.95
2019-05-11T09:06:48.034Z,8.86
2019-05-11T09:11:58.591Z,10.20
2019-05-11T09:17:05.035Z,7.36
2019-05-11T09:22:14.201Z,7.99
2019-05-11T09:27:23.305Z,7.77
2019-05-11T09:32:32.522Z,9.36
2019-05-11T09:37:41.728Z,6.84
2019-05-11T09:42:50.925Z,9.13
2019-05-11T09:48:00.019Z,8.43
2019-05-11T09:53:09.371Z,10.03
2019-05-11T09:58:19.699Z,7.10
2019-05-11T10:03:28.141Z,6.84
2019-05-11T10:08:37.940Z,7.23
2019-05-11T10:13:44.562Z,8.39
2019-05-11T10:18:53.657Z,5.19
2019-05-11T10:24:02.855Z,7.03
2019-05-11T10:29:11.921Z,5.66
2019-05-11T10:34:21.049Z,4.61
2019-05-11T10:39:30.136Z,2.94
2019-05-11T10:44:39.335Z,7.94
2019-05-11T10:49:48.626Z,6.37
2019-05-11T10:54:58.587Z,6.48
2019-05-11T11:00:08.411Z,4.82
2019-05-11T11:05:14.972Z,4.45
2019-05-11T11:10:24.058Z,5.86
2019-05-11T11:15:33.330Z,6.54
2019-05-11T11:20:42.434Z,3.92
2019-05-11T11:25:51.595Z,6.26
2019-05-11T11:31:00.669Z,4.27
2019-05-11T11:36:09.946Z,4.30
2019-05-11T11:41:19.015Z,4.08
2019-05-11T11:46:28.184Z,3.58
2019-05-11T11:51:37.794Z,3.01
2019-05-11T11:56:48.355Z,3.27
2019-05-11T12:01:54.547Z,2.64
2019-05-11T12:07:03.823Z,6.20
2019-05-11T12:12:12.916Z,5.58
2019-05-11T12:17:22.039Z,3.08
2019-05-11T12:22:31.421Z,3.66
2019-05-11T12:27:40.547Z,5.73
2019-05-11T12:32:49.706Z,3.57
2019-05-11T12:37:59.015Z,7.71
2019-05-11T12:43:08.393Z,4.55
2019-05-11T12:48:18.148Z,3.56
2019-05-11T12:53:27.940Z,3.44
2019-05-11T12:58:34.770Z,5.13
2019-05-11T13:03:43.874Z,4.66
2019-05-11T13:08:53.127Z,5.36
2019-05-11T13:14:02.201Z,4.95
2019-05-11T13:19:11.383Z,4.61
2019-05-11T13:24:20.491Z,3.78
2019-05-11T13:29:30.368Z,5.98
2019-05-11T13:34:38.808Z,2.86
2019-05-11T13:39:48.607Z,4.31
2019-05-11T13:44:58.401Z,4.59
2019-05-11T13:50:07.596Z,2.84
2019-05-11T13:55:13.924Z,4.01
2019-05-11T14:00:23.191Z,5.39
2019-05-11T14:05:33.243Z,3.00
2019-05-11T14:10:32.416Z,4.90
2019-05-11T14:15:41.509Z,5.68
2019-05-11T14:20:50.796Z,5.24
2019-05-11T14:25:59.928Z,3.73
2019-05-11T14:31:09.206Z,5.42
2019-05-11T14:36:18.583Z,5.12
2019-05-11T14:41:28.575Z,5.35
2019-05-11T14:46:38.252Z,4.17
2019-05-11T14:51:44.878Z,5.59
2019-05-11T14:56:53.992Z,4.24
2019-05-11T15:02:03.167Z,2.38
2019-05-11T15:07:12.242Z,4.74
2019-05-11T15:12:21.595Z,4.72
2019-05-11T15:17:30.707Z,4.22
2019-05-11T15:22:39.962Z,3.28
2019-05-11T15:27:49.177Z,3.74
2019-05-11T15:32:58.567Z,4.66
2019-05-11T15:38:08.716Z,4.81
2019-05-11T15:43:17.752Z,6.94
2019-05-11T15:48:24.419Z,6.80
2019-05-11T15:53:33.634Z,6.80
2019-05-11T15:58:42.744Z,8.49
2019-05-11T16:03:52.021Z,19.11
2019-05-11T16:09:01.166Z,7.74
2019-05-11T16:14:10.486Z,12.00
2019-05-11T16:19:19.697Z,9.13
2019-05-11T16:24:28.845Z,5.68
2019-05-11T16:29:38.429Z,5.41
2019-05-11T16:34:46.783Z,3.45
2019-05-11T16:39:58.212Z,2.31
2019-05-11T16:45:04.677Z,4.64
2019-05-11T16:50:13.795Z,3.53
2019-05-11T16:55:22.947Z,3.75
2019-05-11T17:00:32.077Z,3.72
2019-05-11T17:05:41.272Z,3.96
2019-05-11T17:10:53.261Z,6.11
2019-05-11T17:15:59.096Z,2.72
2019-05-11T17:21:08.245Z,5.22
2019-05-11T17:26:18.997Z,2.97
2019-05-11T17:31:26.177Z,4.30
2019-05-11T17:36:35.343Z,4.08
2019-05-11T17:41:44.460Z,1.95
2019-05-11T17:46:53.756Z,2.92
2019-05-11T17:52:02.876Z,4.47
2019-05-11T17:57:12.228Z,3.25
2019-05-11T18:02:21.283Z,4.50
2019-05-11T18:07:30.978Z,2.67
2019-05-11T18:12:39.295Z,5.71
2019-05-11T18:17:48.852Z,5.02
2019-05-11T18:22:57.800Z,5.88
2019-05-11T18:28:05.754Z,4.48
2019-05-11T18:33:14.853Z,3.77
2019-05-11T18:38:24.040Z,5.11
2019-05-11T18:43:33.100Z,4.25
2019-05-11T18:48:42.385Z,2.89
2019-05-11T18:53:51.471Z,3.67
2019-05-11T18:59:00.598Z,4.51
2019-05-11T19:04:09.718Z,5.79
2019-05-11T19:09:18.895Z,3.02
2019-05-11T19:14:28.208Z,3.87
2019-05-11T19:19:37.958Z,2.91
2019-05-11T19:24:47.592Z,4.44
2019-05-11T19:29:54.648Z,3.30
2019-05-11T19:35:03.777Z,3.04
2019-05-11T19:40:13.002Z,3.86
2019-05-11T19:45:22.106Z,3.83
2019-05-11T19:50:31.491Z,4.50
2019-05-11T19:55:40.588Z,4.29
2019-05-11T20:00:49.745Z,5.05
2019-05-11T20:05:58.798Z,7.01
2019-05-11T20:11:08.352Z,4.43
2019-05-11T20:16:18.596Z,3.65
2019-05-11T20:21:25.315Z,3.04
2019-05-11T20:26:34.405Z,3.94
2019-05-11T20:31:43.565Z,4.35
2019-05-11T20:36:52.696Z,4.66
2019-05-11T20:42:01.999Z,3.55
2019-05-11T20:47:11.096Z,2.63
2019-05-11T20:52:20.382Z,4.03
2019-05-11T20:57:29.538Z,6.12
2019-05-11T21:02:38.841Z,7.63
2019-05-11T21:07:47.976Z,4.58
2019-05-11T21:12:57.705Z,5.31
2019-05-11T21:18:07.748Z,5.64
2019-05-11T21:23:14.539Z,6.70
2019-05-11T21:28:23.638Z,5.23
2019-05-11T21:33:32.982Z,7.81
2019-05-11T21:38:42.137Z,5.19
2019-05-11T21:43:51.398Z,7.27
2019-05-11T21:49:00.507Z,5.09
2019-05-11T21:54:09.782Z,5.30
2019-05-11T21:59:18.860Z,6.02
2019-05-11T22:04:28.474Z,5.33
2019-05-11T22:09:38.395Z,7.98
2019-05-11T22:14:45.363Z,5.88
2019-05-11T22:19:54.451Z,7.27
2019-05-11T22:25:03.739Z,6.01
2019-05-11T22:30:12.813Z,5.20
2019-05-11T22:35:21.970Z,6.75
2019-05-11T22:40:31.057Z,4.23
2019-05-11T22:45:40.417Z,5.59
2019-05-11T22:50:50.639Z,3.56
2019-05-11T22:55:58.187Z,5.76
2019-05-11T23:01:08.474Z,3.35
2019-05-11T23:06:17.914Z,3.94
2019-05-11T23:11:24.676Z,4.03
2019-05-11T23:16:33.815Z,4.70
2019-05-11T23:21:42.907Z,3.29
2019-05-11T23:26:52.054Z,5.43
2019-05-11T23:32:01.144Z,3.87
2019-05-11T23:37:10.326Z,2.83
2019-05-11T23:42:19.441Z,2.76
2019-05-11T23:47:28.921Z,4.80
2019-05-11T23:52:38.250Z,4.28
2019-05-11T23:57:48.466Z,3.48
